createdAt,value
2022-09-19T00:03:17.158Z,87.23
2022-09-19T00:06:19.405Z,87.41
2022-09-19T00:09:11.742Z,87.81
2022-09-19T00:12:18.427Z,88.05
2022-09-19T00:15:30.611Z,88.03
2022-09-19T00:18:25.096Z,88.32
2022-09-19T00:21:14.679Z,88.21
2022-09-19T00:24:23.150Z,88.04
2022-09-19T00:27:06.941Z,87.83
2022-09-19T00:30:19.497Z,88.04
2022-09-19T00:33:23.667Z,87.77
2022-09-19T00:36:15.850Z,87.84
2022-09-19T00:38:51.848Z,88.09
2022-09-19T00:41:46.869Z,88.03
2022-09-19T00:44:30.627Z,88.45
2022-09-19T00:47:20.548Z,88.09
2022-09-19T00:50:23.937Z,88.01
2022-09-19T00:53:34.017Z,87.98
2022-09-19T00:56:08.782Z,88.19
2022-09-19T00:59:02.962Z,88.16
2022-09-19T01:02:02.944Z,88.24
2022-09-19T01:05:00.471Z,88.20
2022-09-19T01:07:50.346Z,88.04
2022-09-19T01:11:05.161Z,87.88
2022-09-19T01:14:05.607Z,87.95
2022-09-19T01:16:51.782Z,87.63
2022-09-19T01:20:20.417Z,87.52
2022-09-19T01:23:51.257Z,87.55
2022-09-19T01:27:11.624Z,87.47
2022-09-19T01:30:42.048Z,87.32
2022-09-19T01:33:57.082Z,87.27
2022-09-19T01:37:16.386Z,87.26
2022-09-19T01:40:04.726Z,87.21
2022-09-19T01:43:28.995Z,87.34
2022-09-19T01:47:03.657Z,87.48
2022-09-19T01:50:04.582Z,87.43
2022-09-19T01:53:20.887Z,87.44
2022-09-19T01:56:57.901Z,87.57
2022-09-19T02:00:17.382Z,87.96
2022-09-19T02:03:47.956Z,87.89
2022-09-19T02:07:15.062Z,88.12
2022-09-19T02:10:01.590Z,88.15
2022-09-19T02:12:59.113Z,88.19
2022-09-19T02:16:11.182Z,88.31
2022-09-19T02:19:30.821Z,88.53
2022-09-19T02:23:00.357Z,88.54
2022-09-19T02:25:48.931Z,88.38
2022-09-19T02:28:56.582Z,88.56
2022-09-19T02:31:28.999Z,88.41
2022-09-19T02:34:08.204Z,88.43
2022-09-19T02:36:54.151Z,88.25
2022-09-19T02:39:42.858Z,88.73
2022-09-19T02:43:07.546Z,88.99
2022-09-19T02:46:22.378Z,89.05
2022-09-19T02:49:21.787Z,89.18
2022-09-19T02:52:31.731Z,89.36
2022-09-19T02:55:23.239Z,89.48
2022-09-19T02:58:12.809Z,89.68
2022-09-19T03:01:10.699Z,89.84
2022-09-19T03:04:16.248Z,90.11
2022-09-19T03:07:08.607Z,90.14
2022-09-19T03:10:37.373Z,89.57
2022-09-19T03:13:34.922Z,89.83
2022-09-19T03:16:35.515Z,89.80
2022-09-19T03:19:13.990Z,89.57
2022-09-19T03:22:15.374Z,89.67
2022-09-19T03:25:04.917Z,89.69
2022-09-19T03:28:14.528Z,89.72
2022-09-19T03:31:27.387Z,89.61
2022-09-19T03:34:30.844Z,89.86
2022-09-19T03:37:04.864Z,89.56
2022-09-19T03:40:23.905Z,89.59
2022-09-19T03:42:59.216Z,89.64
2022-09-19T03:46:01.716Z,89.32
2022-09-19T03:48:41.141Z,88.86
2022-09-19T03:51:21.681Z,88.95
2022-09-19T03:54:02.462Z,88.68
2022-09-19T03:56:42.363Z,88.55
2022-09-19T04:00:00.937Z,88.55
2022-09-19T04:02:53.826Z,88.35
2022-09-19T04:05:33.663Z,88.14
2022-09-19T04:08:36.892Z,88.06
2022-09-19T04:11:16.513Z,87.77
2022-09-19T04:13:55.352Z,87.70
2022-09-19T04:16:44.277Z,87.81
2022-09-19T04:19:32.528Z,87.67
2022-09-19T04:22:31.784Z,87.45
2022-09-19T04:25:46.506Z,87.48
2022-09-19T04:28:34.274Z,87.45
2022-09-19T04:31:16.164Z,87.39
2022-09-19T04:34:10.007Z,87.05
2022-09-19T04:36:53.190Z,87.30
2022-09-19T04:39:24.561Z,86.98
2022-09-19T04:42:04.339Z,86.96
2022-09-19T04:44:51.253Z,86.89
2022-09-19T04:47:34.262Z,86.67
2022-09-19T04:50:22.599Z,86.72
2022-09-19T04:53:16.981Z,86.75
2022-09-19T04:56:18.484Z,86.83
2022-09-19T04:59:19.562Z,86.92
2022-09-19T05:01:53.937Z,86.86
2022-09-19T05:04:28.197Z,87.02
2022-09-19T05:07:46.567Z,86.89
2022-09-19T05:10:19.375Z,87.22
2022-09-19T05:13:04.483Z,87.32
2022-09-19T05:15:38.084Z,87.41
2022-09-19T05:18:14.337Z,87.55
2022-09-19T05:20:55.802Z,87.57
2022-09-19T05:23:36.827Z,87.83
2022-09-19T05:26:09.653Z,87.66
2022-09-19T05:28:51.439Z,87.61
2022-09-19T05:31:28.294Z,87.64
2022-09-19T05:34:29.943Z,87.41
2022-09-19T05:37:06.026Z,87.46
2022-09-19T05:40:01.888Z,87.55
2022-09-19T05:42:56.107Z,87.65
2022-09-19T05:45:27.905Z,87.58
2022-09-19T05:48:30.424Z,87.63
2022-09-19T05:51:09.862Z,87.70
2022-09-19T05:53:57.327Z,87.73
2022-09-19T05:56:51.340Z,87.72
2022-09-19T05:59:24.746Z,87.48
2022-09-19T06:01:53.539Z,87.39
2022-09-19T06:04:44.279Z,87.41
2022-09-19T06:07:13.334Z,87.39
2022-09-19T06:09:54.072Z,87.55
2022-09-19T06:12:25.802Z,87.41
2022-09-19T06:14:55.353Z,87.10
2022-09-19T06:17:54.877Z,86.58
2022-09-19T06:20:49.550Z,86.34
2022-09-19T06:23:28.505Z,86.30
2022-09-19T06:25:56.753Z,86.06
2022-09-19T06:28:25.557Z,85.76
2022-09-19T06:31:13.914Z,85.85
2022-09-19T06:34:13.398Z,85.61
2022-09-19T06:37:13.760Z,85.61
2022-09-19T06:39:42.266Z,84.80
2022-09-19T06:42:36.868Z,84.95
2022-09-19T06:45:41.643Z,84.94
2022-09-19T06:48:23.983Z,84.35
2022-09-19T06:51:20.252Z,83.86
2022-09-19T06:53:49.577Z,84.16
2022-09-19T06:56:20.742Z,83.87
2022-09-19T06:58:49.008Z,84.11
2022-09-19T07:01:28.585Z,84.21
2022-09-19T07:03:59.525Z,83.36
2022-09-19T07:06:45.528Z,82.76
2022-09-19T07:09:25.529Z,82.31
2022-09-19T07:12:02.532Z,82.64
2022-09-19T07:14:36.260Z,82.89
2022-09-19T07:17:06.108Z,82.55
2022-09-19T07:19:39.396Z,81.98
2022-09-19T07:22:29.985Z,81.49
2022-09-19T07:25:10.351Z,80.70
2022-09-19T07:27:45.526Z,81.14
2022-09-19T07:30:16.542Z,80.83
2022-09-19T07:32:44.694Z,80.37
2022-09-19T07:35:14.364Z,79.41
2022-09-19T07:37:48.925Z,77.49
2022-09-19T07:40:35.995Z,77.11
2022-09-19T07:43:10.177Z,77.48
2022-09-19T07:45:57.114Z,75.95
2022-09-19T07:48:55.179Z,74.57
2022-09-19T07:51:53.100Z,74.63
2022-09-19T07:54:26.560Z,75.08
2022-09-19T07:56:56.220Z,74.91
2022-09-19T07:59:24.253Z,74.50
2022-09-19T08:01:57.862Z,74.03
2022-09-19T08:04:51.892Z,74.55
2022-09-19T08:07:21.532Z,73.62
2022-09-19T08:09:49.904Z,73.05
2022-09-19T08:12:28.686Z,72.75
2022-09-19T08:15:22.503Z,72.93
2022-09-19T08:18:01.602Z,73.87
2022-09-19T08:20:51.959Z,74.64
2022-09-19T08:23:21.829Z,75.18
2022-09-19T08:25:54.476Z,75.13
2022-09-19T08:28:24.007Z,74.61
2022-09-19T08:30:54.513Z,74.28
2022-09-19T08:33:24.033Z,74.73
2022-09-19T08:35:54.591Z,74.22
2022-09-19T08:38:29.447Z,74.12
2022-09-19T08:41:31.002Z,73.75
2022-09-19T08:44:22.534Z,73.42
2022-09-19T08:47:15.076Z,73.32
2022-09-19T08:49:57.332Z,73.09
2022-09-19T08:52:42.223Z,73.06
2022-09-19T08:55:36.194Z,72.08
2022-09-19T08:58:21.443Z,70.58
2022-09-19T09:01:23.519Z,70.22
2022-09-19T09:04:50.206Z,68.18
2022-09-19T09:07:37.252Z,67.59
2022-09-19T09:10:33.680Z,67.30
2022-09-19T09:13:20.055Z,68.22
2022-09-19T09:15:59.380Z,68.79
2022-09-19T09:18:40.928Z,68.61
2022-09-19T09:21:48.096Z,68.96
2022-09-19T09:24:37.982Z,69.36
2022-09-19T09:27:22.331Z,68.49
2022-09-19T09:29:59.409Z,68.26
2022-09-19T09:32:42.037Z,68.49
2022-09-19T09:35:28.407Z,67.29
2022-09-19T09:38:17.356Z,67.12
2022-09-19T09:41:15.521Z,67.34
2022-09-19T09:44:00.492Z,66.75
2022-09-19T09:46:54.330Z,66.49
2022-09-19T09:49:31.473Z,67.10
2022-09-19T09:52:36.519Z,66.75
2022-09-19T09:55:54.173Z,66.43
2022-09-19T09:58:40.413Z,66.51
2022-09-19T10:01:41.739Z,66.42
2022-09-19T10:04:28.366Z,66.52
2022-09-19T10:07:15.944Z,66.66
2022-09-19T10:09:51.240Z,66.95
2022-09-19T10:15:21.043Z,68.00
2022-09-19T10:18:08.510Z,68.62
2022-09-19T10:20:51.077Z,68.85
2022-09-19T10:23:31.253Z,68.92
2022-09-19T10:26:04.507Z,68.94
2022-09-19T10:28:46.989Z,69.25
2022-09-19T10:31:39.455Z,69.97
2022-09-19T10:34:37.064Z,70.23
2022-09-19T10:37:27.639Z,70.69
2022-09-19T10:40:06.094Z,71.34
2022-09-19T10:42:42.739Z,71.55
2022-09-19T10:45:29.302Z,71.34
2022-09-19T10:48:30.736Z,71.67
2022-09-19T10:51:01.273Z,72.14
2022-09-19T10:53:34.259Z,72.35
2022-09-19T10:56:08.779Z,72.88
2022-09-19T10:58:45.331Z,74.00
2022-09-19T11:01:27.818Z,74.95
2022-09-19T11:04:02.226Z,75.01
2022-09-19T11:06:32.876Z,75.37
2022-09-19T11:09:24.496Z,75.20
2022-09-19T11:12:04.674Z,75.45
2022-09-19T11:14:41.270Z,75.62
2022-09-19T11:17:38.518Z,75.26
2022-09-19T11:20:33.247Z,75.46
2022-09-19T11:23:29.286Z,76.34
2022-09-19T11:25:59.613Z,76.79
2022-09-19T11:29:08.282Z,76.41
2022-09-19T11:35:29.609Z,77.17
2022-09-19T11:41:53.834Z,76.52
2022-09-19T11:44:44.468Z,76.64
2022-09-19T11:48:08.362Z,77.20
2022-09-19T11:50:51.657Z,77.42
2022-09-19T11:54:09.811Z,76.88
2022-09-19T11:56:40.324Z,76.86
2022-09-19T11:59:12.166Z,76.86
2022-09-19T12:02:01.843Z,77.05
2022-09-19T12:05:07.836Z,76.67
2022-09-19T12:07:58.156Z,76.71
2022-09-19T12:10:36.931Z,77.52
2022-09-19T12:13:18.330Z,77.44
2022-09-19T12:16:16.191Z,75.90
2022-09-19T12:19:01.075Z,75.04
2022-09-19T12:21:56.591Z,75.30
2022-09-19T12:24:49.772Z,75.18
2022-09-19T12:27:22.309Z,75.42
2022-09-19T12:30:06.904Z,75.56
2022-09-19T12:32:42.274Z,75.33
2022-09-19T12:35:41.245Z,75.77
2022-09-19T12:38:19.744Z,74.84
2022-09-19T12:41:01.922Z,75.11
2022-09-19T12:43:42.031Z,74.87
2022-09-19T12:46:29.223Z,75.41
2022-09-19T12:49:05.466Z,74.46
2022-09-19T12:51:50.774Z,74.37
2022-09-19T12:54:45.079Z,72.86
2022-09-19T12:57:42.180Z,72.73
2022-09-19T13:00:15.240Z,73.12
2022-09-19T13:02:48.505Z,73.68
2022-09-19T13:05:40.053Z,74.28
2022-09-19T13:08:20.736Z,75.14
2022-09-19T13:11:17.437Z,75.40
2022-09-19T13:14:01.479Z,75.84
2022-09-19T13:16:35.920Z,76.31
2022-09-19T13:19:22.757Z,76.64
2022-09-19T13:22:10.073Z,77.05
2022-09-19T13:24:42.076Z,77.06
2022-09-19T13:27:16.605Z,77.39
2022-09-19T13:29:47.112Z,77.43
2022-09-19T13:32:54.109Z,77.48
2022-09-19T13:35:50.692Z,76.73
2022-09-19T13:38:47.811Z,76.94
2022-09-19T13:41:54.331Z,77.37
2022-09-19T13:44:42.195Z,77.30
2022-09-19T13:47:22.903Z,76.51
2022-09-19T13:50:16.064Z,76.67
2022-09-19T13:53:02.563Z,76.64
2022-09-19T13:55:45.953Z,76.36
2022-09-19T13:58:40.923Z,75.75
2022-09-19T14:01:13.744Z,75.96
2022-09-19T14:04:20.594Z,75.75
2022-09-19T14:10:00.448Z,75.47
2022-09-19T14:12:44.696Z,75.10
2022-09-19T14:15:34.236Z,75.15
2022-09-19T14:18:12.062Z,75.12
2022-09-19T14:20:47.335Z,75.24
2022-09-19T14:23:17.591Z,75.04
2022-09-19T14:26:00.498Z,74.88
2022-09-19T14:28:52.650Z,74.87
2022-09-19T14:31:34.818Z,73.99
2022-09-19T14:34:24.246Z,74.07
2022-09-19T14:37:14.111Z,74.29
2022-09-19T14:40:10.856Z,73.35
2022-09-19T14:43:00.050Z,73.12
2022-09-19T14:45:55.738Z,73.30
2022-09-19T14:48:36.397Z,73.40
2022-09-19T14:51:13.318Z,73.73
2022-09-19T14:53:43.083Z,73.78
2022-09-19T14:56:18.854Z,73.81
2022-09-19T14:58:52.736Z,73.60
2022-09-19T15:01:34.457Z,73.28
2022-09-19T15:04:20.684Z,72.78
2022-09-19T15:06:53.490Z,72.84
2022-09-19T15:09:30.579Z,73.23
2022-09-19T15:12:03.062Z,73.45
2022-09-19T15:14:34.390Z,73.75
2022-09-19T15:17:11.637Z,73.69
2022-09-19T15:19:48.344Z,74.13
2022-09-19T15:22:36.400Z,74.01
2022-09-19T15:25:22.991Z,72.42
2022-09-19T15:28:04.306Z,71.51
2022-09-19T15:30:35.364Z,70.92
2022-09-19T15:33:14.520Z,69.83
2022-09-19T15:35:47.002Z,69.04
2022-09-19T15:38:34.461Z,68.21
2022-09-19T15:41:08.903Z,68.29
2022-09-19T15:43:45.598Z,67.39
2022-09-19T15:46:28.572Z,66.78
2022-09-19T15:49:03.556Z,67.34
2022-09-19T15:51:39.139Z,67.62
2022-09-19T15:54:19.024Z,67.22
2022-09-19T15:56:50.001Z,67.41
2022-09-19T15:59:39.058Z,66.70
2022-09-19T16:02:16.429Z,67.06
2022-09-19T16:04:47.528Z,67.41
2022-09-19T16:07:47.258Z,67.94
2022-09-19T16:10:16.887Z,68.38
2022-09-19T16:12:49.187Z,68.90
2022-09-19T16:15:24.048Z,69.22
2022-09-19T16:18:04.980Z,69.81
2022-09-19T16:20:39.549Z,70.33
2022-09-19T16:23:17.294Z,70.81
2022-09-19T16:26:06.081Z,71.11
2022-09-19T16:28:35.412Z,71.65
2022-09-19T16:31:28.370Z,71.96
2022-09-19T16:34:07.414Z,72.48
2022-09-19T16:36:53.647Z,72.96
2022-09-19T16:39:34.790Z,73.21
2022-09-19T16:42:25.573Z,73.75
2022-09-19T16:45:19.178Z,74.40
2022-09-19T16:47:52.095Z,75.35
2022-09-19T16:50:29.267Z,76.58
2022-09-19T16:52:57.889Z,77.35
2022-09-19T16:55:43.289Z,78.11
2022-09-19T16:58:16.430Z,79.13
2022-09-19T17:00:47.567Z,79.46
2022-09-19T17:03:19.310Z,80.55
2022-09-19T17:05:48.102Z,80.88
2022-09-19T17:08:18.416Z,81.30
2022-09-19T17:10:53.231Z,81.36
2022-09-19T17:13:21.535Z,81.98
2022-09-19T17:16:21.072Z,81.81
2022-09-19T17:18:53.803Z,82.03
2022-09-19T17:21:27.874Z,82.02
2022-09-19T17:23:59.135Z,82.35
2022-09-19T17:26:30.696Z,82.14
2022-09-19T17:28:58.855Z,82.47
2022-09-19T17:31:30.993Z,82.73
2022-09-19T17:34:13.404Z,82.91
2022-09-19T17:36:50.646Z,83.08
2022-09-19T17:39:28.536Z,83.33
2022-09-19T17:41:56.585Z,83.39
2022-09-19T17:44:24.854Z,83.84
2022-09-19T17:46:56.907Z,84.04
2022-09-19T17:49:27.532Z,83.83
2022-09-19T17:52:04.723Z,84.16
2022-09-19T17:54:35.768Z,84.40
2022-09-19T17:57:29.207Z,84.26
2022-09-19T18:00:12.933Z,84.59
2022-09-19T18:03:03.736Z,84.86
2022-09-19T18:06:00.915Z,84.71
2022-09-19T18:08:33.454Z,85.10
2022-09-19T18:11:03.345Z,85.28
2022-09-19T18:13:38.721Z,85.16
2022-09-19T18:16:17.877Z,85.52
2022-09-19T18:18:52.173Z,85.70
2022-09-19T18:21:24.828Z,85.63
2022-09-19T18:23:57.736Z,86.09
2022-09-19T18:26:28.378Z,86.12
2022-09-19T18:29:01.723Z,86.13
2022-09-19T18:31:32.895Z,86.03
2022-09-19T18:34:02.727Z,85.77
2022-09-19T18:36:36.066Z,86.17
2022-09-19T18:39:24.659Z,86.16
2022-09-19T18:41:59.964Z,86.53
2022-09-19T18:44:33.806Z,86.57
2022-09-19T18:47:08.874Z,86.86
2022-09-19T18:49:59.991Z,86.82
2022-09-19T18:52:49.426Z,86.98
2022-09-19T18:55:21.779Z,87.34
2022-09-19T18:58:07.019Z,87.15
2022-09-19T19:01:14.198Z,87.44
2022-09-19T19:04:00.759Z,87.09
2022-09-19T19:06:32.496Z,87.31
2022-09-19T19:09:23.126Z,87.36
2022-09-19T19:12:30.962Z,87.29
2022-09-19T19:15:03.448Z,87.48
2022-09-19T19:17:34.105Z,87.12
2022-09-19T19:20:03.481Z,87.51
2022-09-19T19:22:31.448Z,87.00
2022-09-19T19:25:09.265Z,87.14
2022-09-19T19:27:51.807Z,87.20
2022-09-19T19:30:24.173Z,87.26
2022-09-19T19:32:55.758Z,87.48
2022-09-19T19:35:24.412Z,87.39
2022-09-19T19:37:53.620Z,87.68
2022-09-19T19:40:38.996Z,87.56
2022-09-19T19:43:13.213Z,87.28
2022-09-19T19:46:11.975Z,87.34
2022-09-19T19:48:41.434Z,87.32
2022-09-19T19:51:22.471Z,87.65
2022-09-19T19:54:03.440Z,87.63
2022-09-19T19:56:36.524Z,87.35
2022-09-19T19:59:10.336Z,87.55
2022-09-19T20:01:55.152Z,87.20
2022-09-19T20:04:37.662Z,87.26
2022-09-19T20:07:15.290Z,87.30
2022-09-19T20:09:43.762Z,87.42
2022-09-19T20:12:14.903Z,87.22
2022-09-19T20:14:43.542Z,87.23
2022-09-19T20:17:17.654Z,87.28
2022-09-19T20:19:46.069Z,87.26
2022-09-19T20:22:17.673Z,87.23
2022-09-19T20:24:57.568Z,87.24
2022-09-19T20:27:49.370Z,87.30
2022-09-19T20:30:21.553Z,87.29
2022-09-19T20:32:50.543Z,87.40
2022-09-19T20:35:22.613Z,87.54
2022-09-19T20:37:50.820Z,87.42
2022-09-19T20:40:31.977Z,87.70
2022-09-19T20:43:10.215Z,87.53
2022-09-19T20:45:44.498Z,87.52
2022-09-19T20:48:18.037Z,87.83
2022-09-19T20:51:00.972Z,88.06
2022-09-19T20:53:35.748Z,87.74
2022-09-19T20:56:16.369Z,88.12
2022-09-19T20:59:08.614Z,88.28
2022-09-19T21:01:46.119Z,87.97
2022-09-19T21:04:23.791Z,88.65
2022-09-19T21:06:55.180Z,88.54
2022-09-19T21:09:28.708Z,88.77
2022-09-19T21:12:43.533Z,88.74
2022-09-19T21:15:22.727Z,88.78
2022-09-19T21:18:00.469Z,88.75
2022-09-19T21:20:45.958Z,88.68
2022-09-19T21:23:41.849Z,88.51
2022-09-19T21:26:22.743Z,88.66
2022-09-19T21:29:17.476Z,88.94
2022-09-19T21:31:52.501Z,88.83
2022-09-19T21:34:21.235Z,88.81
2022-09-19T21:37:11.583Z,89.14
2022-09-19T21:39:42.665Z,89.26
2022-09-19T21:42:27.749Z,89.10
2022-09-19T21:44:58.497Z,89.09
2022-09-19T21:47:52.917Z,89.03
2022-09-19T21:50:25.953Z,89.37
2022-09-19T21:52:53.849Z,89.41
2022-09-19T21:55:27.689Z,89.42
2022-09-19T21:58:10.289Z,89.36
2022-09-19T22:00:51.606Z,89.45
2022-09-19T22:03:33.735Z,89.45
2022-09-19T22:06:20.050Z,89.39
2022-09-19T22:09:11.274Z,89.39
2022-09-19T22:12:02.047Z,89.48
2022-09-19T22:14:36.415Z,89.52
2022-09-19T22:17:16.912Z,89.51
2022-09-19T22:20:15.363Z,89.51
2022-09-19T22:22:52.607Z,89.52
2022-09-19T22:25:23.807Z,89.62
2022-09-19T22:28:24.814Z,89.49
2022-09-19T22:31:15.370Z,89.68
2022-09-19T22:34:18.102Z,89.42
2022-09-19T22:37:06.951Z,89.58
2022-09-19T22:39:51.864Z,89.32
2022-09-19T22:42:49.332Z,89.16
2022-09-19T22:45:53.616Z,89.41
2022-09-19T22:48:37.438Z,89.30
2022-09-19T22:51:57.611Z,89.33
2022-09-19T22:55:02.182Z,89.19
2022-09-19T22:57:35.418Z,89.24
2022-09-19T23:00:10.287Z,89.02
2022-09-19T23:02:43.576Z,89.22
2022-09-19T23:05:34.459Z,88.94
2022-09-19T23:08:19.977Z,89.22
2022-09-19T23:11:31.555Z,89.08
2022-09-19T23:14:18.326Z,89.09
2022-09-19T23:17:27.147Z,89.18
2022-09-19T23:20:18.013Z,89.14
2022-09-19T23:23:28.311Z,89.09
2022-09-19T23:26:08.284Z,89.44
2022-09-19T23:29:18.929Z,89.32
2022-09-19T23:32:23.890Z,89.35
2022-09-19T23:35:12.420Z,89.85
2022-09-19T23:37:46.504Z,89.91
2022-09-19T23:40:26.587Z,89.62
2022-09-19T23:43:05.291Z,90.01
2022-09-19T23:45:59.975Z,90.14
2022-09-19T23:48:50.275Z,90.05
2022-09-19T23:51:43.899Z,90.15
2022-09-19T23:54:40.900Z,90.10
2022-09-19T23:57:25.587Z,90.35
